createdAt,value
2022-08-17T00:03:13.628Z,22.70
2022-08-17T00:08:19.401Z,22.60
2022-08-17T00:13:25.651Z,22.50
2022-08-17T00:19:01.610Z,22.40
2022-08-17T00:23:54.862Z,22.30
2022-08-17T00:28:57.468Z,22.20
2022-08-17T00:34:01.384Z,22.20
2022-08-17T00:39:04.589Z,22.20
2022-08-17T00:44:07.007Z,22.10
2022-08-17T00:49:12.670Z,22.10
2022-08-17T00:54:20.686Z,22.10
2022-08-17T01:00:02.141Z,22.00
2022-08-17T01:05:10.293Z,22.00
2022-08-17T01:10:58.270Z,21.90
2022-08-17T01:15:40.229Z,21.80
2022-08-17T01:20:49.493Z,21.70
2022-08-17T01:25:55.878Z,21.70
2022-08-17T01:31:01.962Z,21.70
2022-08-17T01:36:06.437Z,21.70
2022-08-17T01:41:13.785Z,21.80
2022-08-17T01:46:20.111Z,21.80
2022-08-17T01:51:23.525Z,21.80
2022-08-17T01:56:29.477Z,21.90
2022-08-17T02:01:33.368Z,21.80
2022-08-17T02:06:45.022Z,21.80
2022-08-17T02:11:49.923Z,21.80
2022-08-17T02:16:52.965Z,21.70
2022-08-17T02:21:55.765Z,21.70
2022-08-17T02:26:59.682Z,21.60
2022-08-17T02:32:02.162Z,21.60
2022-08-17T02:37:05.559Z,21.60
2022-08-17T02:42:10.192Z,21.50
2022-08-17T02:47:13.105Z,21.50
2022-08-17T02:52:15.929Z,21.40
2022-08-17T02:57:39.963Z,21.40
2022-08-17T03:02:44.363Z,21.30
2022-08-17T03:07:47.258Z,21.30
2022-08-17T03:12:53.045Z,21.30
2022-08-17T03:17:56.608Z,21.30
2022-08-17T03:23:01.770Z,21.40
2022-08-17T03:28:07.562Z,21.40
2022-08-17T03:33:10.378Z,21.50
2022-08-17T03:38:15.003Z,21.50
2022-08-17T03:43:21.474Z,21.50
2022-08-17T03:48:24.559Z,21.60
2022-08-17T03:53:27.300Z,21.60
2022-08-17T03:58:31.170Z,21.60
2022-08-17T04:03:33.593Z,21.70
2022-08-17T04:08:36.044Z,21.60
2022-08-17T04:13:40.430Z,21.50
2022-08-17T04:18:42.841Z,21.60
2022-08-17T04:23:45.670Z,21.70
2022-08-17T04:28:49.712Z,21.60
2022-08-17T04:33:52.234Z,21.70
2022-08-17T04:38:54.657Z,21.60
2022-08-17T04:43:58.937Z,21.50
2022-08-17T04:49:04.518Z,21.40
2022-08-17T04:54:09.544Z,21.40
2022-08-17T04:59:15.386Z,21.40
2022-08-17T05:04:33.392Z,21.40
2022-08-17T05:09:37.744Z,21.40
2022-08-17T05:14:42.458Z,21.60
2022-08-17T05:19:48.765Z,21.80
2022-08-17T05:24:55.496Z,21.90
2022-08-17T05:29:59.829Z,22.10
2022-08-17T05:35:02.298Z,22.20
2022-08-17T05:40:06.679Z,22.40
2022-08-17T05:45:11.805Z,22.50
2022-08-17T05:50:27.157Z,22.70
2022-08-17T05:55:42.021Z,22.70
2022-08-17T06:00:54.084Z,22.90
2022-08-17T06:06:25.186Z,23.00
2022-08-17T06:11:40.726Z,23.20
2022-08-17T06:16:48.856Z,23.40
2022-08-17T06:21:55.141Z,23.50
2022-08-17T06:27:06.838Z,23.60
2022-08-17T06:32:13.109Z,23.70
2022-08-17T06:37:51.000Z,23.90
2022-08-17T06:43:07.345Z,24.00
2022-08-17T06:48:15.615Z,24.20
2022-08-17T06:53:25.384Z,24.30
2022-08-17T06:58:30.012Z,24.50
2022-08-17T07:03:37.258Z,24.70
2022-08-17T07:08:49.520Z,24.90
2022-08-17T07:14:08.947Z,25.00
2022-08-17T07:19:15.770Z,25.10
2022-08-17T07:24:30.574Z,25.20
2022-08-17T07:29:41.040Z,25.20
2022-08-17T07:35:07.094Z,25.30
2022-08-17T07:40:21.083Z,25.20
2022-08-17T07:45:23.660Z,25.20
2022-08-17T07:50:29.570Z,25.20
2022-08-17T07:55:33.295Z,25.20
2022-08-17T08:00:35.758Z,25.20
2022-08-17T08:05:52.582Z,25.10
2022-08-17T08:11:01.387Z,25.00
2022-08-17T08:16:23.573Z,25.00
2022-08-17T08:21:38.474Z,25.00
2022-08-17T08:26:45.332Z,24.90
2022-08-17T08:31:53.856Z,24.80
2022-08-17T08:37:16.284Z,24.80
2022-08-17T08:42:28.421Z,24.80
2022-08-17T08:47:45.822Z,24.80
2022-08-17T08:53:04.292Z,24.90
2022-08-17T08:58:31.957Z,25.00
2022-08-17T09:04:16.999Z,25.10
2022-08-17T09:09:32.895Z,25.20
2022-08-17T09:14:44.991Z,25.30
2022-08-17T09:19:54.759Z,25.30
2022-08-17T09:25:07.641Z,25.50
2022-08-17T09:30:12.807Z,25.60
2022-08-17T09:35:17.356Z,25.60
2022-08-17T09:40:25.851Z,25.70
2022-08-17T09:45:34.660Z,25.80
2022-08-17T09:51:03.709Z,25.90
2022-08-17T09:56:25.985Z,26.10
2022-08-17T10:01:35.757Z,26.20
2022-08-17T10:06:47.354Z,26.40
2022-08-17T10:11:57.691Z,26.90
2022-08-17T10:17:05.547Z,27.60
2022-08-17T10:22:34.984Z,28.20
2022-08-17T10:27:44.858Z,28.80
2022-08-17T10:32:51.650Z,29.20
2022-08-17T10:38:24.578Z,29.50
2022-08-17T10:44:36.671Z,29.80
2022-08-17T10:49:26.386Z,29.90
2022-08-17T10:54:38.032Z,29.90
2022-08-17T10:59:53.605Z,29.70
2022-08-17T11:05:19.474Z,29.50
2022-08-17T11:10:41.519Z,29.50
2022-08-17T11:16:03.491Z,29.50
2022-08-17T11:21:59.611Z,29.90
2022-08-17T11:27:12.363Z,30.00
2022-08-17T11:32:47.419Z,29.90
2022-08-17T11:38:00.243Z,29.70
2022-08-17T11:43:27.765Z,29.80
2022-08-17T11:48:42.801Z,29.90
2022-08-17T11:59:55.321Z,29.90
2022-08-17T12:05:33.520Z,29.70
2022-08-17T12:10:52.398Z,29.60
2022-08-17T12:15:56.117Z,29.40
2022-08-17T12:21:19.950Z,29.30
2022-08-17T12:26:26.876Z,29.40
2022-08-17T12:31:34.671Z,29.70
2022-08-17T12:36:40.806Z,30.00
2022-08-17T12:41:46.527Z,30.30
2022-08-17T12:46:54.335Z,30.40
2022-08-17T12:52:13.706Z,30.40
2022-08-17T12:57:19.280Z,30.30
2022-08-17T13:02:40.216Z,30.30
2022-08-17T13:07:45.671Z,30.30
2022-08-17T13:12:48.777Z,30.30
2022-08-17T13:18:00.953Z,30.50
2022-08-17T13:23:11.986Z,30.70
2022-08-17T13:28:30.579Z,30.90
2022-08-17T13:33:44.667Z,31.00
2022-08-17T13:38:49.276Z,31.10
2022-08-17T13:43:51.952Z,31.00
2022-08-17T13:49:02.352Z,31.00
2022-08-17T13:54:25.922Z,31.00
2022-08-17T13:59:53.825Z,30.80
2022-08-17T14:04:55.624Z,30.70
2022-08-17T14:10:21.699Z,30.60
2022-08-17T14:15:54.830Z,30.50
2022-08-17T14:20:53.217Z,30.40
2022-08-17T14:26:02.022Z,30.30
2022-08-17T14:31:16.057Z,30.20
2022-08-17T14:36:23.854Z,30.20
2022-08-17T14:41:34.717Z,30.20
2022-08-17T14:46:50.598Z,30.10
2022-08-17T14:51:56.598Z,30.10
2022-08-17T14:57:26.005Z,30.10
2022-08-17T15:02:37.247Z,30.10
2022-08-17T15:07:44.827Z,30.00
2022-08-17T15:12:51.491Z,29.90
2022-08-17T15:17:56.079Z,29.70
2022-08-17T15:23:00.030Z,29.60
2022-08-17T15:28:10.177Z,29.40
2022-08-17T15:33:16.378Z,29.30
2022-08-17T15:38:26.200Z,29.10
2022-08-17T15:43:34.202Z,29.00
2022-08-17T15:48:36.982Z,28.80
2022-08-17T15:53:42.928Z,28.60
2022-08-17T15:58:51.793Z,28.40
2022-08-17T16:04:03.975Z,27.90
2022-08-17T16:09:15.281Z,26.80
2022-08-17T16:14:24.130Z,25.30
2022-08-17T16:19:27.120Z,23.90
2022-08-17T16:24:30.351Z,22.70
2022-08-17T16:29:38.348Z,22.00
2022-08-17T16:34:43.258Z,21.70
2022-08-17T16:39:48.470Z,21.60
2022-08-17T16:44:59.461Z,21.60
2022-08-17T16:50:02.163Z,21.70
2022-08-17T16:55:07.426Z,21.80
2022-08-17T17:00:15.038Z,21.80
2022-08-17T17:05:33.692Z,21.70
2022-08-17T17:10:44.491Z,21.60
2022-08-17T17:15:54.386Z,21.50
2022-08-17T17:21:00.177Z,21.60
2022-08-17T17:26:19.357Z,21.60
2022-08-17T17:31:33.139Z,21.70
2022-08-17T17:36:41.815Z,21.80
2022-08-17T17:41:51.700Z,21.80
2022-08-17T17:47:01.454Z,21.80
2022-08-17T17:52:16.776Z,21.80
2022-08-17T17:57:29.960Z,21.80
2022-08-17T18:02:51.449Z,21.90
2022-08-17T18:08:09.344Z,21.90
2022-08-17T18:13:26.572Z,22.00
2022-08-17T18:18:38.257Z,22.00
2022-08-17T18:23:47.514Z,22.10
2022-08-17T18:28:51.935Z,22.10
2022-08-17T18:34:43.688Z,22.10
2022-08-17T18:39:48.298Z,22.10
2022-08-17T18:44:55.294Z,22.10
2022-08-17T18:50:21.455Z,22.00
2022-08-17T18:55:32.275Z,22.00
2022-08-17T19:00:44.587Z,22.00
2022-08-17T19:05:53.070Z,22.00
2022-08-17T19:11:07.798Z,21.90
2022-08-17T19:16:15.874Z,22.00
2022-08-17T19:21:24.671Z,21.90
2022-08-17T19:26:50.927Z,21.90
2022-08-17T19:31:57.902Z,21.90
2022-08-17T19:37:11.675Z,21.90
2022-08-17T19:42:30.339Z,21.90
2022-08-17T19:47:54.916Z,21.90
2022-08-17T19:53:07.950Z,21.90
2022-08-17T19:58:21.910Z,21.90
2022-08-17T20:03:37.283Z,21.90
2022-08-17T20:08:57.226Z,21.90
2022-08-17T20:14:04.741Z,22.00
2022-08-17T20:19:24.633Z,22.00
2022-08-17T20:24:35.293Z,22.00
2022-08-17T20:30:03.392Z,22.00
2022-08-17T20:35:24.639Z,22.10
2022-08-17T20:40:35.909Z,22.10
2022-08-17T20:46:07.427Z,22.10
2022-08-17T20:51:23.149Z,22.10
2022-08-17T20:56:50.550Z,22.10
2022-08-17T21:02:17.622Z,22.10
2022-08-17T21:07:27.989Z,22.10
2022-08-17T21:12:46.974Z,22.10
2022-08-17T21:17:56.480Z,22.10
2022-08-17T21:23:17.435Z,22.10
2022-08-17T21:28:30.077Z,22.10
2022-08-17T21:33:38.876Z,22.00
2022-08-17T21:39:03.653Z,22.00
2022-08-17T21:44:19.328Z,22.00
2022-08-17T21:49:27.746Z,21.90
2022-08-17T21:54:34.246Z,21.90
2022-08-17T21:59:39.546Z,21.80
2022-08-17T22:04:43.535Z,21.70
2022-08-17T22:09:48.828Z,21.60
2022-08-17T22:15:01.458Z,21.50
2022-08-17T22:20:08.222Z,21.50
2022-08-17T22:25:22.085Z,21.50
2022-08-17T22:30:58.287Z,21.50
2022-08-17T22:36:26.249Z,21.40
2022-08-17T22:41:50.742Z,21.30
2022-08-17T22:47:23.117Z,21.30
2022-08-17T22:52:33.182Z,21.30
2022-08-17T22:57:36.489Z,21.30
2022-08-17T23:02:55.405Z,21.30
2022-08-17T23:07:58.283Z,21.30
2022-08-17T23:13:01.338Z,21.30
2022-08-17T23:18:07.311Z,21.30
2022-08-17T23:23:12.069Z,21.30
2022-08-17T23:28:14.597Z,21.30
2022-08-17T23:33:24.433Z,21.30
2022-08-17T23:38:27.500Z,21.30
2022-08-17T23:43:30.092Z,21.30
2022-08-17T23:48:36.946Z,21.30
2022-08-17T23:53:43.756Z,21.30
2022-08-17T23:58:46.359Z,21.20
